Airfield :
LOGIN :

Register | Disclaimer

   EN    FR    IT 

 










Legend :    VFR   Marginal VFR   IFR   Intensive IFR   Very Intensive IFR
Visi :
Ceiling :
>= 8 km
>= 3000ft
5 to 8 km
1000 to 3000 ft
1500m to 5 km
500 to 1000 ft
800 to 1500m
200 to 500 ft
< 800m
< 200 ft
Symbols :   Thunderstorms  Fog  Heavy snow  Heavy precipitations  Wind > 20 kt
SIGMETs :     Misc.  Thunderstorms  Icing  Turbulence  Mountain Waves  Volcanic Ashes






- Airport Elevation : 18 ft
- IATA code : AJA


LFKJ - Ajaccio

CURRENT METAR :
  • 010200Z AUTO 03007KT 9999 SCT035 OVC041 11/01 Q1016 NOSIG

EXPIRED METARs :
  • 010130Z AUTO 02007KT 9999 BKN034 BKN042 OVC048 11/01 Q1016
  • 010100Z AUTO 02011KT 9999 SCT030 BKN038 11/02 Q1016 NOSIG
  • 010030Z AUTO 01011KT 9999 SCT031/// BKN039/// ///TCU 11/03 Q1017 BECMG SCT020
  • 010000Z AUTO 01012KT 9999 FEW028 BKN039 OVC056 11/04 Q1017 NOSIG

TAF TAF LFKJ
Valid from the 31 at 21:00 until the 01 at 21:00 UTC


312000Z 3121/0121 04006KT 9999 SCT020
BECMG 0109/0111 23010KT NSC
BECMG 0118/0120 04005KT
ATIS : +33 4 95 23 59 85



MET'MAP, your aeronautical weather chart ! - Copyright ORBIFLY December 2007 - Disclaimer

ORBIFLY MET'MAP TEAM :

Programming & Development : Alexandra Zaïnal
Concept & original design : Baudouin d'Aumeries
Assistance for programming : Marc-Olivier Méhu
Technical & hardware support : Manuel Goepfert

Contact : metmap@orbifly.com




SOURCES & CREDITS :

   NOAA